KDMN/DMN METAR and TAF weather

Enter ICAO airport designator
Station Type Date Time Source
KDMN METAR 2020/09/24 09:53 UTC NOAA

KDMN 240953Z AUTO 32007KT 10SM CLR 17/06 A3008 RMK AO2 SLP111 T01670056


Station Type Date Time Source
KDMN Decoded METAR 2020/09/24 09:53 UTC NOAA

DEMING MUNICIPAL AIRPORT, NM, United States (KDMN) 32-16N 107-43W 1311M
Sep 24, 2020 - 05:53 AM EDT / 2020.09.24 0953 UTC
Wind: from the NW (320 degrees) at 8 MPH (7 KT):0
Visibility: 10 mile(s):0
Sky conditions: clear
Temperature: 62.1 F (16.7 C)
Dew Point: 42.1 F (5.6 C)
Relative Humidity: 47%
Pressure (altimeter): 30.08 in. Hg (1018 hPa)
ob: KDMN 240953Z AUTO 32007KT 10SM CLR 17/06 A3008 RMK AO2 SLP111 T01670056
cycle: 10

Station Type Date Time Source
KDMN TAF 2020/09/24 06:30 UTC NOAA

TAF KDMN 240529Z 2406/2506 28005KT P6SM SCT100
FM242100 22007KT P6SM SKC

Example: see airport list